Terminal Aerodrome Forecast
Issued by NWS Pueblo, CO

Home | Current Version | Previous Version | Text Only | Print | Product List | Glossary On
Versions: 1 2 3 4 5 6 7 8 9 10 11 12 13 14 15 16 17 18 19 20 21 22 23 24 25 26 27 28 29 30 31 32 33 34
000
FTUS45 KPUB 280537
TAFCOS
TAF
KCOS 280537Z 2806/2906 36007KT P6SM BKN200
     FM281800 16010KT P6SM FEW120 BKN200
     FM282200 22008KT P6SM FEW120 SCT200
     FM290200 35008KT P6SM SCT200=

USA.gov is the U.S. government's official web portal to all federal, state and local government web resources and services.